Terminal Aerodrome Forecast
Issued by NWS Blacksburg, VA

Home | Current Version | Previous Version | Text Only | Print | Product List | Glossary On
Versions: 1 2 3 4 5 6 7 8 9 10 11 12 13 14 15 16 17 18 19 20 21 22 23 24 25 26 27 28 29 30 31 32
000
FTUS41 KRNK 271120
TAFROA
TAF
KROA 271120Z 2712/2812 30007KT P6SM SKC
     FM271700 31012G20KT P6SM SCT035
     FM280100 32013G26KT P6SM SCT040
     FM280600 32009G18KT P6SM SKC=

USA.gov is the U.S. government's official web portal to all federal, state and local government web resources and services.